sensor_id;sensor_type;location;lat;lon;timestamp;P1;durP1;ratioP1;P2;durP2;ratioP2
67798;SDS011;54596;43.216;27.904;2023-04-25T00:00:06;22.50;;;8.52;;
67798;SDS011;54596;43.216;27.904;2023-04-25T00:02:32;21.60;;;8.02;;
67798;SDS011;54596;43.216;27.904;2023-04-25T00:05:00;20.38;;;8.13;;
67798;SDS011;54596;43.216;27.904;2023-04-25T00:07:29;19.90;;;7.82;;
67798;SDS011;54596;43.216;27.904;2023-04-25T00:09:58;19.83;;;7.97;;
67798;SDS011;54596;43.216;27.904;2023-04-25T00:12:23;18.33;;;8.23;;
67798;SDS011;54596;43.216;27.904;2023-04-25T00:14:49;20.02;;;7.80;;
67798;SDS011;54596;43.216;27.904;2023-04-25T00:17:15;20.75;;;8.65;;
67798;SDS011;54596;43.216;27.904;2023-04-25T00:19:42;23.85;;;9.20;;
67798;SDS011;54596;43.216;27.904;2023-04-25T00:22:11;23.98;;;8.95;;
67798;SDS011;54596;43.216;27.904;2023-04-25T00:24:38;22.05;;;8.98;;
67798;SDS011;54596;43.216;27.904;2023-04-25T00:27:05;21.58;;;9.10;;
67798;SDS011;54596;43.216;27.904;2023-04-25T00:29:31;23.50;;;9.02;;
67798;SDS011;54596;43.216;27.904;2023-04-25T00:31:56;23.25;;;8.85;;
67798;SDS011;54596;43.216;27.904;2023-04-25T00:34:23;21.35;;;8.73;;
67798;SDS011;54596;43.216;27.904;2023-04-25T00:36:48;21.77;;;8.30;;
67798;SDS011;54596;43.216;27.904;2023-04-25T00:39:14;24.35;;;9.45;;
67798;SDS011;54596;43.216;27.904;2023-04-25T00:41:40;21.35;;;9.32;;
67798;SDS011;54596;43.216;27.904;2023-04-25T00:44:05;25.95;;;8.77;;
67798;SDS011;54596;43.216;27.904;2023-04-25T00:46:33;23.08;;;8.88;;
67798;SDS011;54596;43.216;27.904;2023-04-25T00:49:00;24.67;;;9.43;;
67798;SDS011;54596;43.216;27.904;2023-04-25T00:51:29;22.63;;;9.07;;
67798;SDS011;54596;43.216;27.904;2023-04-25T00:54:00;23.08;;;8.52;;
67798;SDS011;54596;43.216;27.904;2023-04-25T00:56:28;26.73;;;9.20;;
67798;SDS011;54596;43.216;27.904;2023-04-25T00:58:55;21.92;;;8.70;;
67798;SDS011;54596;43.216;27.904;2023-04-25T01:01:21;24.85;;;9.30;;
67798;SDS011;54596;43.216;27.904;2023-04-25T01:03:47;24.05;;;9.13;;
67798;SDS011;54596;43.216;27.904;2023-04-25T01:06:17;26.00;;;9.00;;
67798;SDS011;54596;43.216;27.904;2023-04-25T01:08:44;22.30;;;8.60;;
67798;SDS011;54596;43.216;27.904;2023-04-25T01:11:10;23.33;;;8.60;;
67798;SDS011;54596;43.216;27.904;2023-04-25T01:13:35;23.30;;;8.45;;
67798;SDS011;54596;43.216;27.904;2023-04-25T01:16:04;22.67;;;8.55;;
67798;SDS011;54596;43.216;27.904;2023-04-25T01:18:30;28.13;;;8.93;;
67798;SDS011;54596;43.216;27.904;2023-04-25T01:20:55;22.48;;;8.85;;
67798;SDS011;54596;43.216;27.904;2023-04-25T01:23:22;23.80;;;9.10;;
67798;SDS011;54596;43.216;27.904;2023-04-25T01:25:49;20.05;;;8.30;;
67798;SDS011;54596;43.216;27.904;2023-04-25T01:28:17;21.70;;;8.80;;
67798;SDS011;54596;43.216;27.904;2023-04-25T01:30:43;19.67;;;8.40;;
67798;SDS011;54596;43.216;27.904;2023-04-25T01:33:11;23.20;;;9.07;;
67798;SDS011;54596;43.216;27.904;2023-04-25T01:35:40;24.92;;;10.05;;
67798;SDS011;54596;43.216;27.904;2023-04-25T01:38:06;26.67;;;9.23;;
67798;SDS011;54596;43.216;27.904;2023-04-25T01:40:34;26.40;;;9.45;;
67798;SDS011;54596;43.216;27.904;2023-04-25T01:43:03;22.95;;;9.10;;
67798;SDS011;54596;43.216;27.904;2023-04-25T01:45:29;24.52;;;8.80;;
67798;SDS011;54596;43.216;27.904;2023-04-25T01:47:55;23.95;;;9.27;;
67798;SDS011;54596;43.216;27.904;2023-04-25T01:50:24;26.45;;;9.73;;
67798;SDS011;54596;43.216;27.904;2023-04-25T01:52:50;23.60;;;9.50;;
67798;SDS011;54596;43.216;27.904;2023-04-25T01:55:16;24.25;;;8.98;;
67798;SDS011;54596;43.216;27.904;2023-04-25T01:57:42;23.65;;;9.07;;
67798;SDS011;54596;43.216;27.904;2023-04-25T02:00:08;24.15;;;9.35;;
67798;SDS011;54596;43.216;27.904;2023-04-25T02:02:35;22.55;;;8.98;;
67798;SDS011;54596;43.216;27.904;2023-04-25T02:05:01;24.70;;;9.68;;
67798;SDS011;54596;43.216;27.904;2023-04-25T02:07:29;24.52;;;9.93;;
67798;SDS011;54596;43.216;27.904;2023-04-25T02:09:55;25.92;;;10.18;;
67798;SDS011;54596;43.216;27.904;2023-04-25T02:12:20;22.73;;;9.68;;
67798;SDS011;54596;43.216;27.904;2023-04-25T02:14:48;24.67;;;9.98;;
67798;SDS011;54596;43.216;27.904;2023-04-25T02:17:15;28.70;;;9.70;;
67798;SDS011;54596;43.216;27.904;2023-04-25T02:19:41;20.27;;;9.65;;
67798;SDS011;54596;43.216;27.904;2023-04-25T02:22:10;24.55;;;9.73;;
67798;SDS011;54596;43.216;27.904;2023-04-25T02:24:35;29.25;;;10.50;;
67798;SDS011;54596;43.216;27.904;2023-04-25T02:27:03;29.63;;;9.85;;
67798;SDS011;54596;43.216;27.904;2023-04-25T02:29:30;33.17;;;10.45;;
67798;SDS011;54596;43.216;27.904;2023-04-25T02:31:56;23.27;;;9.50;;
67798;SDS011;54596;43.216;27.904;2023-04-25T02:34:21;26.58;;;9.88;;
67798;SDS011;54596;43.216;27.904;2023-04-25T02:36:48;25.98;;;10.02;;
67798;SDS011;54596;43.216;27.904;2023-04-25T02:39:15;27.90;;;10.70;;
67798;SDS011;54596;43.216;27.904;2023-04-25T02:41:41;23.92;;;10.38;;
67798;SDS011;54596;43.216;27.904;2023-04-25T02:44:07;25.60;;;10.10;;
67798;SDS011;54596;43.216;27.904;2023-04-25T02:46:32;25.90;;;10.32;;
67798;SDS011;54596;43.216;27.904;2023-04-25T02:48:58;28.13;;;11.60;;
67798;SDS011;54596;43.216;27.904;2023-04-25T02:51:23;28.58;;;11.60;;
67798;SDS011;54596;43.216;27.904;2023-04-25T02:53:49;25.27;;;11.45;;
67798;SDS011;54596;43.216;27.904;2023-04-25T02:56:14;27.15;;;12.20;;
67798;SDS011;54596;43.216;27.904;2023-04-25T02:58:40;25.95;;;11.30;;
67798;SDS011;54596;43.216;27.904;2023-04-25T03:01:05;27.38;;;12.13;;
67798;SDS011;54596;43.216;27.904;2023-04-25T03:03:32;26.45;;;12.55;;
67798;SDS011;54596;43.216;27.904;2023-04-25T03:05:57;30.60;;;12.27;;
67798;SDS011;54596;43.216;27.904;2023-04-25T03:08:23;27.20;;;11.75;;
67798;SDS011;54596;43.216;27.904;2023-04-25T03:10:50;29.52;;;12.30;;
67798;SDS011;54596;43.216;27.904;2023-04-25T03:13:17;36.08;;;13.18;;
67798;SDS011;54596;43.216;27.904;2023-04-25T03:15:42;26.17;;;15.02;;
67798;SDS011;54596;43.216;27.904;2023-04-25T03:18:08;34.33;;;14.00;;
67798;SDS011;54596;43.216;27.904;2023-04-25T03:20:34;25.25;;;13.40;;
67798;SDS011;54596;43.216;27.904;2023-04-25T03:22:59;34.08;;;14.15;;
67798;SDS011;54596;43.216;27.904;2023-04-25T03:25:25;26.73;;;14.30;;
67798;SDS011;54596;43.216;27.904;2023-04-25T03:27:50;29.02;;;12.77;;
67798;SDS011;54596;43.216;27.904;2023-04-25T03:30:18;27.60;;;13.25;;
67798;SDS011;54596;43.216;27.904;2023-04-25T03:32:45;26.40;;;12.50;;
67798;SDS011;54596;43.216;27.904;2023-04-25T03:35:10;31.23;;;13.40;;
67798;SDS011;54596;43.216;27.904;2023-04-25T03:37:37;27.95;;;13.65;;
67798;SDS011;54596;43.216;27.904;2023-04-25T03:40:02;31.40;;;14.73;;
67798;SDS011;54596;43.216;27.904;2023-04-25T03:42:29;27.63;;;12.57;;
67798;SDS011;54596;43.216;27.904;2023-04-25T03:44:54;30.90;;;12.43;;
67798;SDS011;54596;43.216;27.904;2023-04-25T03:47:23;25.90;;;12.07;;
67798;SDS011;54596;43.216;27.904;2023-04-25T03:49:49;27.40;;;12.60;;
67798;SDS011;54596;43.216;27.904;2023-04-25T03:52:16;26.92;;;12.52;;
67798;SDS011;54596;43.216;27.904;2023-04-25T03:54:44;29.38;;;12.45;;
67798;SDS011;54596;43.216;27.904;2023-04-25T03:57:09;27.45;;;12.57;;
67798;SDS011;54596;43.216;27.904;2023-04-25T03:59:35;28.33;;;12.15;;
67798;SDS011;54596;43.216;27.904;2023-04-25T04:02:03;27.75;;;12.55;;
67798;SDS011;54596;43.216;27.904;2023-04-25T04:04:29;28.02;;;12.98;;
67798;SDS011;54596;43.216;27.904;2023-04-25T04:07:09;29.25;;;13.13;;
67798;SDS011;54596;43.216;27.904;2023-04-25T04:09:35;29.23;;;13.30;;
67798;SDS011;54596;43.216;27.904;2023-04-25T04:12:06;30.52;;;13.35;;
67798;SDS011;54596;43.216;27.904;2023-04-25T04:14:31;28.65;;;13.20;;
67798;SDS011;54596;43.216;27.904;2023-04-25T04:16:58;27.17;;;13.30;;
67798;SDS011;54596;43.216;27.904;2023-04-25T04:19:24;30.17;;;12.98;;
67798;SDS011;54596;43.216;27.904;2023-04-25T04:21:50;31.65;;;13.48;;
67798;SDS011;54596;43.216;27.904;2023-04-25T04:24:17;29.92;;;13.57;;
67798;SDS011;54596;43.216;27.904;2023-04-25T04:26:42;29.00;;;13.68;;
67798;SDS011;54596;43.216;27.904;2023-04-25T04:29:11;29.92;;;12.90;;
67798;SDS011;54596;43.216;27.904;2023-04-25T04:31:36;27.45;;;13.82;;
67798;SDS011;54596;43.216;27.904;2023-04-25T04:34:02;30.88;;;13.18;;
67798;SDS011;54596;43.216;27.904;2023-04-25T04:36:28;25.95;;;12.07;;
67798;SDS011;54596;43.216;27.904;2023-04-25T04:38:54;29.08;;;12.43;;
67798;SDS011;54596;43.216;27.904;2023-04-25T04:41:21;33.05;;;12.15;;
67798;SDS011;54596;43.216;27.904;2023-04-25T04:43:48;32.38;;;19.58;;
67798;SDS011;54596;43.216;27.904;2023-04-25T04:46:14;27.80;;;10.65;;
67798;SDS011;54596;43.216;27.904;2023-04-25T04:48:39;27.15;;;11.70;;
67798;SDS011;54596;43.216;27.904;2023-04-25T04:51:05;27.13;;;11.07;;
67798;SDS011;54596;43.216;27.904;2023-04-25T04:53:31;27.25;;;9.80;;
67798;SDS011;54596;43.216;27.904;2023-04-25T04:55:57;25.00;;;10.25;;
67798;SDS011;54596;43.216;27.904;2023-04-25T04:58:23;27.85;;;9.95;;
67798;SDS011;54596;43.216;27.904;2023-04-25T05:00:50;24.48;;;9.80;;
67798;SDS011;54596;43.216;27.904;2023-04-25T05:03:16;25.50;;;10.55;;
67798;SDS011;54596;43.216;27.904;2023-04-25T05:05:41;25.60;;;10.05;;
67798;SDS011;54596;43.216;27.904;2023-04-25T05:08:07;66.10;;;13.70;;
67798;SDS011;54596;43.216;27.904;2023-04-25T05:10:32;36.10;;;9.75;;
67798;SDS011;54596;43.216;27.904;2023-04-25T05:12:58;21.70;;;9.35;;
67798;SDS011;54596;43.216;27.904;2023-04-25T05:15:24;23.05;;;8.90;;
67798;SDS011;54596;43.216;27.904;2023-04-25T05:17:49;26.88;;;10.07;;
67798;SDS011;54596;43.216;27.904;2023-04-25T05:20:15;26.77;;;9.25;;
67798;SDS011;54596;43.216;27.904;2023-04-25T05:22:40;24.73;;;8.23;;
67798;SDS011;54596;43.216;27.904;2023-04-25T05:25:07;24.13;;;7.65;;
67798;SDS011;54596;43.216;27.904;2023-04-25T05:27:33;22.52;;;7.68;;
67798;SDS011;54596;43.216;27.904;2023-04-25T05:29:59;16.63;;;7.25;;
67798;SDS011;54596;43.216;27.904;2023-04-25T05:32:24;25.75;;;7.80;;
67798;SDS011;54596;43.216;27.904;2023-04-25T05:34:51;20.15;;;7.38;;
67798;SDS011;54596;43.216;27.904;2023-04-25T05:37:17;23.58;;;7.30;;
67798;SDS011;54596;43.216;27.904;2023-04-25T05:39:42;18.35;;;7.05;;
67798;SDS011;54596;43.216;27.904;2023-04-25T05:42:08;22.90;;;6.85;;
67798;SDS011;54596;43.216;27.904;2023-04-25T05:44:33;17.35;;;6.80;;
67798;SDS011;54596;43.216;27.904;2023-04-25T05:46:59;21.77;;;6.97;;
67798;SDS011;54596;43.216;27.904;2023-04-25T05:49:24;17.63;;;7.57;;
67798;SDS011;54596;43.216;27.904;2023-04-25T05:51:50;18.55;;;7.32;;
67798;SDS011;54596;43.216;27.904;2023-04-25T05:54:15;22.10;;;8.05;;
67798;SDS011;54596;43.216;27.904;2023-04-25T05:56:41;26.92;;;8.00;;
67798;SDS011;54596;43.216;27.904;2023-04-25T05:59:06;20.42;;;7.63;;
67798;SDS011;54596;43.216;27.904;2023-04-25T06:01:32;18.80;;;7.95;;
67798;SDS011;54596;43.216;27.904;2023-04-25T06:03:57;20.25;;;8.15;;
67798;SDS011;54596;43.216;27.904;2023-04-25T06:06:23;22.25;;;8.50;;
67798;SDS011;54596;43.216;27.904;2023-04-25T06:08:48;18.52;;;7.68;;
67798;SDS011;54596;43.216;27.904;2023-04-25T06:11:14;17.70;;;8.15;;
67798;SDS011;54596;43.216;27.904;2023-04-25T06:13:40;20.33;;;8.57;;
67798;SDS011;54596;43.216;27.904;2023-04-25T06:16:05;24.27;;;9.00;;
67798;SDS011;54596;43.216;27.904;2023-04-25T06:18:31;32.03;;;8.90;;
67798;SDS011;54596;43.216;27.904;2023-04-25T06:20:56;20.75;;;8.32;;
67798;SDS011;54596;43.216;27.904;2023-04-25T06:23:22;22.55;;;8.55;;
67798;SDS011;54596;43.216;27.904;2023-04-25T06:25:47;45.67;;;9.88;;
67798;SDS011;54596;43.216;27.904;2023-04-25T06:28:13;22.38;;;8.25;;
67798;SDS011;54596;43.216;27.904;2023-04-25T06:30:38;23.13;;;9.15;;
67798;SDS011;54596;43.216;27.904;2023-04-25T06:33:04;23.73;;;8.75;;
67798;SDS011;54596;43.216;27.904;2023-04-25T06:35:29;22.23;;;8.63;;
67798;SDS011;54596;43.216;27.904;2023-04-25T06:37:55;25.02;;;9.00;;
67798;SDS011;54596;43.216;27.904;2023-04-25T06:40:20;20.45;;;9.23;;
67798;SDS011;54596;43.216;27.904;2023-04-25T06:42:46;24.20;;;8.82;;
67798;SDS011;54596;43.216;27.904;2023-04-25T06:45:11;22.00;;;8.40;;
67798;SDS011;54596;43.216;27.904;2023-04-25T06:47:37;20.63;;;7.80;;
67798;SDS011;54596;43.216;27.904;2023-04-25T06:50:02;24.52;;;7.72;;
67798;SDS011;54596;43.216;27.904;2023-04-25T06:52:28;21.70;;;8.57;;
67798;SDS011;54596;43.216;27.904;2023-04-25T06:54:54;20.40;;;7.80;;
67798;SDS011;54596;43.216;27.904;2023-04-25T06:57:20;44.92;;;8.70;;
67798;SDS011;54596;43.216;27.904;2023-04-25T06:59:45;18.83;;;7.10;;
67798;SDS011;54596;43.216;27.904;2023-04-25T07:02:12;23.48;;;7.30;;
67798;SDS011;54596;43.216;27.904;2023-04-25T07:04:38;19.08;;;6.90;;
67798;SDS011;54596;43.216;27.904;2023-04-25T07:07:03;17.17;;;6.50;;
67798;SDS011;54596;43.216;27.904;2023-04-25T07:09:30;19.13;;;7.07;;
67798;SDS011;54596;43.216;27.904;2023-04-25T07:11:58;19.75;;;7.00;;
67798;SDS011;54596;43.216;27.904;2023-04-25T07:14:26;19.23;;;6.95;;
67798;SDS011;54596;43.216;27.904;2023-04-25T07:16:52;18.88;;;6.93;;
67798;SDS011;54596;43.216;27.904;2023-04-25T07:19:18;20.25;;;6.82;;
67798;SDS011;54596;43.216;27.904;2023-04-25T07:21:44;13.45;;;5.93;;
67798;SDS011;54596;43.216;27.904;2023-04-25T07:24:10;14.63;;;6.30;;
67798;SDS011;54596;43.216;27.904;2023-04-25T07:26:35;18.35;;;6.50;;
67798;SDS011;54596;43.216;27.904;2023-04-25T07:29:01;15.45;;;5.80;;
67798;SDS011;54596;43.216;27.904;2023-04-25T07:31:26;24.02;;;6.13;;
67798;SDS011;54596;43.216;27.904;2023-04-25T07:33:52;20.00;;;6.60;;
67798;SDS011;54596;43.216;27.904;2023-04-25T07:36:18;20.17;;;6.95;;
67798;SDS011;54596;43.216;27.904;2023-04-25T07:38:43;21.55;;;6.63;;
67798;SDS011;54596;43.216;27.904;2023-04-25T07:41:09;17.75;;;5.70;;
67798;SDS011;54596;43.216;27.904;2023-04-25T07:43:34;13.05;;;5.32;;
67798;SDS011;54596;43.216;27.904;2023-04-25T07:46:00;15.82;;;5.47;;
67798;SDS011;54596;43.216;27.904;2023-04-25T07:48:25;17.95;;;6.13;;
67798;SDS011;54596;43.216;27.904;2023-04-25T07:50:51;17.65;;;6.00;;
67798;SDS011;54596;43.216;27.904;2023-04-25T07:53:16;15.38;;;5.90;;
67798;SDS011;54596;43.216;27.904;2023-04-25T07:55:43;19.77;;;5.90;;
67798;SDS011;54596;43.216;27.904;2023-04-25T07:58:09;23.00;;;6.50;;
67798;SDS011;54596;43.216;27.904;2023-04-25T08:00:37;13.02;;;6.30;;
67798;SDS011;54596;43.216;27.904;2023-04-25T08:03:03;17.65;;;7.70;;
67798;SDS011;54596;43.216;27.904;2023-04-25T08:05:28;16.98;;;7.75;;
67798;SDS011;54596;43.216;27.904;2023-04-25T08:07:54;25.73;;;8.68;;
67798;SDS011;54596;43.216;27.904;2023-04-25T08:10:21;19.15;;;7.90;;
67798;SDS011;54596;43.216;27.904;2023-04-25T08:12:48;20.10;;;7.82;;
67798;SDS011;54596;43.216;27.904;2023-04-25T08:15:13;21.65;;;8.38;;
67798;SDS011;54596;43.216;27.904;2023-04-25T08:17:39;22.08;;;8.40;;
67798;SDS011;54596;43.216;27.904;2023-04-25T08:20:05;16.63;;;8.43;;
67798;SDS011;54596;43.216;27.904;2023-04-25T08:22:31;22.20;;;9.10;;
67798;SDS011;54596;43.216;27.904;2023-04-25T08:24:56;21.25;;;9.20;;
67798;SDS011;54596;43.216;27.904;2023-04-25T08:27:22;20.45;;;9.20;;
67798;SDS011;54596;43.216;27.904;2023-04-25T08:29:48;22.73;;;9.30;;
67798;SDS011;54596;43.216;27.904;2023-04-25T08:32:15;32.03;;;9.82;;
67798;SDS011;54596;43.216;27.904;2023-04-25T08:34:40;21.60;;;10.00;;
67798;SDS011;54596;43.216;27.904;2023-04-25T08:37:08;23.17;;;9.98;;
67798;SDS011;54596;43.216;27.904;2023-04-25T08:39:36;18.00;;;9.45;;
67798;SDS011;54596;43.216;27.904;2023-04-25T08:42:05;18.33;;;9.55;;
67798;SDS011;54596;43.216;27.904;2023-04-25T08:44:35;20.40;;;9.27;;
67798;SDS011;54596;43.216;27.904;2023-04-25T08:47:03;19.65;;;9.20;;
67798;SDS011;54596;43.216;27.904;2023-04-25T08:49:33;20.67;;;9.88;;
67798;SDS011;54596;43.216;27.904;2023-04-25T08:52:00;25.90;;;9.50;;
67798;SDS011;54596;43.216;27.904;2023-04-25T08:54:30;18.45;;;9.30;;
67798;SDS011;54596;43.216;27.904;2023-04-25T08:56:56;18.40;;;8.88;;
67798;SDS011;54596;43.216;27.904;2023-04-25T08:59:23;18.98;;;8.30;;
67798;SDS011;54596;43.216;27.904;2023-04-25T09:01:49;22.33;;;8.75;;
67798;SDS011;54596;43.216;27.904;2023-04-25T09:04:17;22.73;;;9.00;;
67798;SDS011;54596;43.216;27.904;2023-04-25T09:06:46;18.17;;;8.05;;
67798;SDS011;54596;43.216;27.904;2023-04-25T09:09:13;15.13;;;7.38;;
67798;SDS011;54596;43.216;27.904;2023-04-25T09:11:39;15.55;;;7.85;;
67798;SDS011;54596;43.216;27.904;2023-04-25T09:17:20;23.77;;;8.05;;
67798;SDS011;54596;43.216;27.904;2023-04-25T09:19:39;19.93;;;8.07;;
67798;SDS011;54596;43.216;27.904;2023-04-25T09:22:05;18.48;;;7.65;;
67798;SDS011;54596;43.216;27.904;2023-04-25T09:24:36;20.83;;;7.22;;
67798;SDS011;54596;43.216;27.904;2023-04-25T09:27:07;18.73;;;7.70;;
67798;SDS011;54596;43.216;27.904;2023-04-25T09:29:35;17.35;;;7.03;;
67798;SDS011;54596;43.216;27.904;2023-04-25T09:32:19;18.85;;;7.20;;
67798;SDS011;54596;43.216;27.904;2023-04-25T09:34:55;20.10;;;7.60;;
67798;SDS011;54596;43.216;27.904;2023-04-25T09:37:22;23.23;;;6.60;;
67798;SDS011;54596;43.216;27.904;2023-04-25T09:39:51;16.63;;;6.75;;
67798;SDS011;54596;43.216;27.904;2023-04-25T09:42:21;17.80;;;6.82;;
67798;SDS011;54596;43.216;27.904;2023-04-25T09:44:47;15.75;;;6.95;;
67798;SDS011;54596;43.216;27.904;2023-04-25T09:47:14;16.25;;;6.60;;
67798;SDS011;54596;43.216;27.904;2023-04-25T09:49:42;24.58;;;7.05;;
67798;SDS011;54596;43.216;27.904;2023-04-25T09:52:09;13.43;;;6.43;;
67798;SDS011;54596;43.216;27.904;2023-04-25T09:54:39;15.25;;;6.78;;
67798;SDS011;54596;43.216;27.904;2023-04-25T09:57:10;12.35;;;5.95;;
67798;SDS011;54596;43.216;27.904;2023-04-25T09:59:43;20.73;;;6.45;;
67798;SDS011;54596;43.216;27.904;2023-04-25T10:02:11;32.88;;;9.20;;
67798;SDS011;54596;43.216;27.904;2023-04-25T10:04:37;13.13;;;5.90;;
67798;SDS011;54596;43.216;27.904;2023-04-25T10:07:07;15.25;;;6.38;;
67798;SDS011;54596;43.216;27.904;2023-04-25T10:09:33;13.93;;;6.85;;
67798;SDS011;54596;43.216;27.904;2023-04-25T10:12:02;14.80;;;6.82;;
67798;SDS011;54596;43.216;27.904;2023-04-25T10:14:31;15.65;;;5.95;;
67798;SDS011;54596;43.216;27.904;2023-04-25T10:16:57;16.10;;;6.03;;
67798;SDS011;54596;43.216;27.904;2023-04-25T10:19:24;11.48;;;6.30;;
67798;SDS011;54596;43.216;27.904;2023-04-25T10:21:52;40.38;;;7.72;;
67798;SDS011;54596;43.216;27.904;2023-04-25T10:26:49;12.48;;;5.68;;
67798;SDS011;54596;43.216;27.904;2023-04-25T10:29:22;14.70;;;6.60;;
67798;SDS011;54596;43.216;27.904;2023-04-25T10:31:49;14.10;;;5.68;;
67798;SDS011;54596;43.216;27.904;2023-04-25T10:34:15;19.05;;;5.68;;
67798;SDS011;54596;43.216;27.904;2023-04-25T10:36:51;19.27;;;6.25;;
67798;SDS011;54596;43.216;27.904;2023-04-25T10:39:26;19.77;;;6.22;;
67798;SDS011;54596;43.216;27.904;2023-04-25T10:41:56;15.60;;;5.72;;
67798;SDS011;54596;43.216;27.904;2023-04-25T10:44:22;15.32;;;5.80;;
67798;SDS011;54596;43.216;27.904;2023-04-25T10:46:51;14.55;;;5.70;;
67798;SDS011;54596;43.216;27.904;2023-04-25T10:52:14;17.52;;;5.90;;
67798;SDS011;54596;43.216;27.904;2023-04-25T10:54:51;22.20;;;6.22;;
67798;SDS011;54596;43.216;27.904;2023-04-25T11:02:30;17.92;;;6.13;;
67798;SDS011;54596;43.216;27.904;2023-04-25T11:04:56;19.25;;;6.53;;
67798;SDS011;54596;43.216;27.904;2023-04-25T11:10:12;16.40;;;6.40;;
67798;SDS011;54596;43.216;27.904;2023-04-25T11:12:39;13.70;;;6.25;;
67798;SDS011;54596;43.216;27.904;2023-04-25T11:15:05;14.00;;;6.25;;
67798;SDS011;54596;43.216;27.904;2023-04-25T11:17:32;16.25;;;7.18;;
67798;SDS011;54596;43.216;27.904;2023-04-25T11:19:58;13.43;;;6.53;;
67798;SDS011;54596;43.216;27.904;2023-04-25T11:22:23;14.77;;;7.05;;
67798;SDS011;54596;43.216;27.904;2023-04-25T11:24:49;17.52;;;6.55;;
67798;SDS011;54596;43.216;27.904;2023-04-25T11:27:15;14.73;;;6.68;;
67798;SDS011;54596;43.216;27.904;2023-04-25T11:29:41;17.52;;;6.85;;
67798;SDS011;54596;43.216;27.904;2023-04-25T11:32:07;18.40;;;6.85;;
67798;SDS011;54596;43.216;27.904;2023-04-25T11:34:33;14.07;;;6.57;;
67798;SDS011;54596;43.216;27.904;2023-04-25T11:37:00;15.02;;;6.35;;
67798;SDS011;54596;43.216;27.904;2023-04-25T11:39:26;16.65;;;6.40;;
67798;SDS011;54596;43.216;27.904;2023-04-25T11:41:53;21.15;;;6.80;;
67798;SDS011;54596;43.216;27.904;2023-04-25T11:44:19;15.40;;;5.70;;
67798;SDS011;54596;43.216;27.904;2023-04-25T11:46:45;14.35;;;5.65;;
67798;SDS011;54596;43.216;27.904;2023-04-25T11:49:12;14.35;;;6.40;;
67798;SDS011;54596;43.216;27.904;2023-04-25T11:51:41;12.75;;;5.80;;
67798;SDS011;54596;43.216;27.904;2023-04-25T11:54:08;19.23;;;6.60;;
67798;SDS011;54596;43.216;27.904;2023-04-25T11:56:34;13.60;;;5.78;;
67798;SDS011;54596;43.216;27.904;2023-04-25T12:01:31;20.23;;;5.85;;
67798;SDS011;54596;43.216;27.904;2023-04-25T12:03:57;20.80;;;5.68;;
67798;SDS011;54596;43.216;27.904;2023-04-25T12:06:27;13.23;;;5.32;;
67798;SDS011;54596;43.216;27.904;2023-04-25T12:09:03;14.90;;;5.00;;
67798;SDS011;54596;43.216;27.904;2023-04-25T12:11:32;10.98;;;4.93;;
67798;SDS011;54596;43.216;27.904;2023-04-25T12:14:04;10.40;;;4.70;;
67798;SDS011;54596;43.216;27.904;2023-04-25T12:16:39;11.90;;;4.85;;
67798;SDS011;54596;43.216;27.904;2023-04-25T12:19:05;27.20;;;5.32;;
67798;SDS011;54596;43.216;27.904;2023-04-25T12:21:31;30.48;;;6.05;;
67798;SDS011;54596;43.216;27.904;2023-04-25T12:24:07;15.80;;;4.82;;
67798;SDS011;54596;43.216;27.904;2023-04-25T12:29:24;12.13;;;5.20;;
67798;SDS011;54596;43.216;27.904;2023-04-25T12:31:51;11.55;;;5.30;;
67798;SDS011;54596;43.216;27.904;2023-04-25T12:34:19;14.02;;;5.35;;
67798;SDS011;54596;43.216;27.904;2023-04-25T12:36:44;16.77;;;5.40;;
67798;SDS011;54596;43.216;27.904;2023-04-25T12:41:43;19.23;;;6.72;;
67798;SDS011;54596;43.216;27.904;2023-04-25T12:44:09;18.25;;;6.40;;
67798;SDS011;54596;43.216;27.904;2023-04-25T12:46:35;12.73;;;5.97;;
67798;SDS011;54596;43.216;27.904;2023-04-25T12:49:01;14.48;;;6.13;;
67798;SDS011;54596;43.216;27.904;2023-04-25T12:51:28;16.38;;;6.25;;
67798;SDS011;54596;43.216;27.904;2023-04-25T12:53:58;14.25;;;6.32;;
67798;SDS011;54596;43.216;27.904;2023-04-25T12:56:27;14.48;;;6.75;;
67798;SDS011;54596;43.216;27.904;2023-04-25T12:58:53;14.63;;;6.70;;
67798;SDS011;54596;43.216;27.904;2023-04-25T13:01:19;13.73;;;6.13;;
67798;SDS011;54596;43.216;27.904;2023-04-25T13:03:45;16.67;;;6.32;;
67798;SDS011;54596;43.216;27.904;2023-04-25T13:06:11;18.38;;;7.13;;
67798;SDS011;54596;43.216;27.904;2023-04-25T13:08:37;15.82;;;7.15;;
67798;SDS011;54596;43.216;27.904;2023-04-25T13:11:04;21.27;;;7.03;;
67798;SDS011;54596;43.216;27.904;2023-04-25T13:13:31;15.23;;;7.07;;
67798;SDS011;54596;43.216;27.904;2023-04-25T13:15:57;16.83;;;7.72;;
67798;SDS011;54596;43.216;27.904;2023-04-25T13:18:23;19.30;;;8.07;;
67798;SDS011;54596;43.216;27.904;2023-04-25T13:20:52;16.75;;;7.57;;
67798;SDS011;54596;43.216;27.904;2023-04-25T13:23:18;23.60;;;8.63;;
67798;SDS011;54596;43.216;27.904;2023-04-25T13:25:44;18.33;;;7.93;;
67798;SDS011;54596;43.216;27.904;2023-04-25T13:28:09;18.95;;;7.85;;
67798;SDS011;54596;43.216;27.904;2023-04-25T13:30:35;16.05;;;8.52;;
67798;SDS011;54596;43.216;27.904;2023-04-25T13:33:01;27.08;;;10.05;;
67798;SDS011;54596;43.216;27.904;2023-04-25T13:35:28;15.63;;;9.07;;
67798;SDS011;54596;43.216;27.904;2023-04-25T13:37:55;16.48;;;8.90;;
67798;SDS011;54596;43.216;27.904;2023-04-25T13:40:21;16.77;;;9.15;;
67798;SDS011;54596;43.216;27.904;2023-04-25T13:42:46;16.27;;;9.30;;
67798;SDS011;54596;43.216;27.904;2023-04-25T13:45:12;26.65;;;10.02;;
67798;SDS011;54596;43.216;27.904;2023-04-25T13:47:37;23.70;;;10.15;;
67798;SDS011;54596;43.216;27.904;2023-04-25T13:50:03;18.70;;;9.80;;
67798;SDS011;54596;43.216;27.904;2023-04-25T13:52:32;28.98;;;10.73;;
67798;SDS011;54596;43.216;27.904;2023-04-25T13:54:58;20.13;;;11.27;;
67798;SDS011;54596;43.216;27.904;2023-04-25T13:57:24;17.27;;;10.48;;
67798;SDS011;54596;43.216;27.904;2023-04-25T13:59:50;18.25;;;10.82;;
67798;SDS011;54596;43.216;27.904;2023-04-25T14:02:16;19.52;;;11.70;;
67798;SDS011;54596;43.216;27.904;2023-04-25T14:04:42;22.05;;;11.77;;
67798;SDS011;54596;43.216;27.904;2023-04-25T14:07:07;21.70;;;12.48;;
67798;SDS011;54596;43.216;27.904;2023-04-25T14:09:33;24.02;;;12.35;;
67798;SDS011;54596;43.216;27.904;2023-04-25T14:11:59;21.17;;;12.80;;
67798;SDS011;54596;43.216;27.904;2023-04-25T14:14:25;18.50;;;12.15;;
67798;SDS011;54596;43.216;27.904;2023-04-25T14:16:50;18.50;;;12.60;;
67798;SDS011;54596;43.216;27.904;2023-04-25T14:19:18;18.23;;;12.18;;
67798;SDS011;54596;43.216;27.904;2023-04-25T14:21:45;23.58;;;14.18;;
67798;SDS011;54596;43.216;27.904;2023-04-25T14:24:11;22.48;;;14.45;;
67798;SDS011;54596;43.216;27.904;2023-04-25T14:26:37;21.30;;;12.73;;
67798;SDS011;54596;43.216;27.904;2023-04-25T14:29:03;17.92;;;11.07;;
67798;SDS011;54596;43.216;27.904;2023-04-25T14:31:30;22.88;;;12.63;;
67798;SDS011;54596;43.216;27.904;2023-04-25T14:33:58;17.65;;;11.90;;
67798;SDS011;54596;43.216;27.904;2023-04-25T14:36:23;17.25;;;12.10;;
67798;SDS011;54596;43.216;27.904;2023-04-25T14:38:49;21.35;;;12.05;;